Аэропорт: Гродно. Гродно

ICAO: UMMG

METAR:
2019/01/21 14:00
UMMG 211400Z 23003G06MPS 9000 OVC008 M04/M05 Q1019 NOSIG
METAR:
2018/08/30 12:24
TAF UMMG 301100Z 3012/30218 18005MPS 9999 BKN020